KSNY/SNY METAR and TAF weather

Enter ICAO airport designator
Station Type Date Time Source
KSNY METAR 2019/06/27 03:53 UTC NOAA

KSNY 270353Z AUTO 10004KT 10SM CLR 17/14 A3000 RMK AO2 SLP111 T01720139


Station Type Date Time Source
KSNY Decoded METAR 2019/06/27 03:53 UTC NOAA

SIDNEY MUNICIPAL AIRPORT, NE, United States (KSNY) 41-06N 102-59W 1307M
Jun 26, 2019 - 11:53 PM EDT / 2019.06.27 0353 UTC
Wind: from the E (100 degrees) at 5 MPH (4 KT):0
Visibility: 10 mile(s):0
Sky conditions: clear
Temperature: 63.0 F (17.2 C)
Dew Point: 57.0 F (13.9 C)
Relative Humidity: 80%
Pressure (altimeter): 30 in. Hg (1015 hPa)
ob: KSNY 270353Z AUTO 10004KT 10SM CLR 17/14 A3000 RMK AO2 SLP111 T01720139
cycle: 4

Station Type Date Time Source
KSNY TAF 2019/06/26 18:54 UTC NOAA

TAF KSNY 261744Z 2618/2718 18007KT P6SM SCT250
FM262200 16010KT P6SM VCTS SCT090CB
FM270200 15005KT P6SM SCT250

Example: see airport list